Time;durP1;ratioP1;P1;durP2;ratioP2;P2;SDS_P1;SDS_P2;PMS_P1;PMS_P2;Temp;Humidity;BMP_temperature;BMP_pressure;BME280_temperature;BME280_humidity;BME280_pressure;Samples;Min_cycle;Max_cycle;Signal;HPM_P1;HPM_P2
2022/11/15 00:00:20;;;;;;;38.28;15.13;;;;;;;8.35;79.51;101082.03;2041775;29;20310;-75
2022/11/15 00:01:41;;;;;;;37.25;15.50;;;;;;;8.37;79.37;101079.91;2041541;29;20652;-74
2022/11/15 00:03:02;;;;;;;46.42;16.70;;;;;;;8.37;79.95;101079.91;2042598;29;20291;-77
2022/11/15 00:04:24;;;;;;;39.20;15.27;;;;;;;8.37;79.28;101079.91;2041493;29;20779;-76
2022/11/15 00:05:50;;;;;;;41.17;15.63;;;;;;;8.35;79.89;101071.31;2038725;29;20806;-75
2022/11/15 00:07:13;;;;;;;41.47;16.25;;;;;;;8.32;79.59;101075.31;2032834;29;20299;-75
2022/11/15 00:08:36;;;;;;;42.10;15.93;;;;;;;8.33;79.58;101068.09;2034152;29;20291;-76
2022/11/15 00:09:59;;;;;;;39.13;16.48;;;;;;;8.36;80.26;101067.59;2033637;29;20310;-76
2022/11/15 00:11:20;;;;;;;45.20;15.43;;;;;;;8.31;79.89;101065.63;2029105;29;20280;-76
2022/11/15 00:12:41;;;;;;;39.90;16.33;;;;;;;8.32;79.55;101071.81;2028559;29;20300;-76
2022/11/15 00:14:04;;;;;;;42.38;16.38;;;;;;;8.33;79.64;101062.72;2030791;29;20304;-75
2022/11/15 00:15:27;;;;;;;44.03;16.67;;;;;;;8.34;80.07;101064.34;2028809;29;20300;-76
2022/11/15 00:16:48;;;;;;;44.50;16.02;;;;;;;8.35;80.12;101065.94;2020871;29;20304;-75
2022/11/15 00:18:15;;;;;;;40.05;16.05;;;;;;;8.40;79.69;101066.03;2030870;29;20280;-75
2022/11/15 00:19:36;;;;;;;40.75;16.02;;;;;;;8.45;80.00;101067.97;2034018;29;20284;-75
2022/11/15 00:21:08;;;;;;;40.03;15.38;;;;;;;8.49;79.97;101067.22;2036012;29;20844;-74
2022/11/15 00:22:34;;;;;;;45.90;16.70;;;;;;;8.51;79.59;101075.81;2033827;29;20291;-76
2022/11/15 00:23:58;;;;;;;43.58;16.40;;;;;;;8.50;79.57;101068.03;2033876;29;20303;-76
2022/11/15 00:25:23;;;;;;;37.22;14.98;;;;;;;8.47;79.63;101065.84;2034005;29;20305;-76
2022/11/15 00:26:46;;;;;;;40.42;16.02;;;;;;;8.50;79.95;101065.34;2034391;29;20602;-76
2022/11/15 00:28:09;;;;;;;36.78;15.05;;;;;;;8.51;79.76;101072.31;2034479;29;20693;-76
2022/11/15 00:29:32;;;;;;;39.35;15.23;;;;;;;8.53;79.43;101067.53;2033902;29;20296;-76
2022/11/15 00:30:52;;;;;;;40.80;15.50;;;;;;;8.54;79.66;101061.09;2033592;29;20644;-76
2022/11/15 00:32:12;;;;;;;44.50;15.20;;;;;;;8.54;79.66;101066.44;2033862;29;20288;-76
2022/11/15 00:33:36;;;;;;;44.33;14.95;;;;;;;8.55;79.29;101062.72;2033821;29;20044;-75
2022/11/15 00:35:00;;;;;;;39.15;15.52;;;;;;;8.57;79.46;101068.63;2033123;29;20680;-75
2022/11/15 00:36:24;;;;;;;43.33;16.00;;;;;;;8.56;79.76;101057.09;2033057;29;20321;-75
2022/11/15 00:37:50;;;;;;;44.40;16.25;;;;;;;8.53;79.26;101064.84;2033192;29;20291;-76
2022/11/15 00:39:13;;;;;;;43.25;16.73;;;;;;;8.49;79.21;101056.50;2024758;29;20296;-76
2022/11/15 00:40:38;;;;;;;43.33;15.48;;;;;;;8.49;79.40;101061.06;2030945;29;20291;-76
2022/11/15 00:41:59;;;;;;;40.30;16.00;;;;;;;8.49;79.29;101058.38;2033140;29;20304;-78
2022/11/15 00:43:20;;;;;;;45.20;15.95;;;;;;;8.47;79.69;101055.94;2033146;29;20617;-77
2022/11/15 00:44:41;;;;;;;42.67;17.17;;;;;;;8.47;79.27;101061.28;2033220;29;20284;-76
2022/11/15 00:46:02;;;;;;;43.67;16.52;;;;;;;8.47;79.80;101055.13;2032974;29;20772;-75
2022/11/15 00:47:23;;;;;;;44.90;16.00;;;;;;;8.46;79.63;101056.19;2033131;29;20652;-75
2022/11/15 00:48:47;;;;;;;43.03;16.38;;;;;;;8.47;79.59;101052.44;2034172;29;20295;-74
2022/11/15 00:50:08;;;;;;;42.22;16.27;;;;;;;8.49;79.52;101055.69;2033548;29;20295;-75
2022/11/15 00:51:32;;;;;;;40.28;15.57;;;;;;;8.49;79.53;101047.66;2036447;29;20512;-73
2022/11/15 00:52:53;;;;;;;43.88;15.68;;;;;;;8.48;79.79;101040.66;2033659;29;20640;-74
2022/11/15 00:54:14;;;;;;;41.05;15.65;;;;;;;8.45;79.49;101044.66;2035284;29;20288;-75
2022/11/15 00:55:37;;;;;;;38.10;16.60;;;;;;;8.45;79.42;101042.00;2028245;29;20296;-75
2022/11/15 00:57:00;;;;;;;42.95;15.10;;;;;;;8.40;79.36;101031.22;2034448;29;20543;-76
2022/11/15 00:58:24;;;;;;;38.70;15.43;;;;;;;8.34;79.08;101038.34;2038803;29;20802;-75
2022/11/15 00:59:45;;;;;;;43.88;15.95;;;;;;;8.37;80.03;101039.72;2041769;29;20767;-75
2022/11/15 01:01:08;;;;;;;47.05;16.98;;;;;;;8.40;79.94;101033.88;2041971;29;20288;-75
2022/11/15 01:02:31;;;;;;;43.13;16.80;;;;;;;8.44;79.99;101026.16;2041365;29;20303;-74
2022/11/15 01:03:52;;;;;;;44.22;15.82;;;;;;;8.46;80.16;101024.84;2041098;29;20295;-75
2022/11/15 01:05:13;;;;;;;48.25;17.20;;;;;;;8.44;79.84;101026.97;2040682;29;20287;-75
2022/11/15 01:06:34;;;;;;;42.72;15.55;;;;;;;8.42;80.04;101023.75;2040352;29;20066;-75
2022/11/15 01:07:57;;;;;;;45.08;17.02;;;;;;;8.44;80.20;101026.97;2034378;29;20322;-74
2022/11/15 01:09:20;;;;;;;41.05;15.90;;;;;;;8.46;79.96;101019.47;2040122;29;20299;-74
2022/11/15 01:10:42;;;;;;;41.78;15.57;;;;;;;8.47;79.78;101021.09;2040709;29;21003;-74
2022/11/15 01:12:05;;;;;;;41.08;15.35;;;;;;;8.49;80.10;101021.66;2040835;29;20656;-73
2022/11/15 01:13:29;;;;;;;45.78;16.73;;;;;;;8.51;79.89;101014.19;2032350;29;20288;-75
2022/11/15 01:14:51;;;;;;;42.20;15.82;;;;;;;8.52;79.77;101010.44;2032896;29;20295;-74
2022/11/15 01:16:20;;;;;;;43.50;15.52;;;;;;;8.53;79.55;101014.72;2037668;29;20660;-74
2022/11/15 01:17:46;;;;;;;46.30;16.92;;;;;;;8.50;79.42;101015.22;2040365;29;20291;-74
2022/11/15 01:19:12;;;;;;;44.55;16.08;;;;;;;8.50;79.86;101009.88;2033310;29;20292;-74
2022/11/15 01:20:35;;;;;;;40.67;15.07;;;;;;;8.49;79.58;101005.59;2038924;29;20306;-74
2022/11/15 01:21:56;;;;;;;34.88;14.05;;;;;;;8.47;79.94;101005.00;2035354;29;20307;-74
2022/11/15 01:23:18;;;;;;;40.25;14.60;;;;;;;8.45;79.56;101006.31;2035169;29;20296;-75
2022/11/15 01:24:39;;;;;;;41.78;15.38;;;;;;;8.44;79.92;101000.16;2038164;29;20291;-75
2022/11/15 01:26:01;;;;;;;42.25;14.65;;;;;;;8.46;79.73;101003.41;2030304;29;20287;-73
2022/11/15 01:27:21;;;;;;;42.83;14.85;;;;;;;8.46;79.80;101003.41;2038447;29;20307;-73
2022/11/15 01:28:42;;;;;;;45.25;16.33;;;;;;;8.39;79.57;101002.81;2041640;29;20288;-73
2022/11/15 01:30:08;;;;;;;37.58;15.15;;;;;;;8.30;79.66;100999.72;2041522;29;20292;-74
2022/11/15 01:31:31;;;;;;;44.03;14.93;;;;;;;8.27;79.85;100996.75;2041127;29;20293;-74
2022/11/15 01:32:53;;;;;;;38.42;14.75;;;;;;;8.25;80.14;100996.19;2038675;29;20299;-74
2022/11/15 01:34:16;;;;;;;41.30;14.90;;;;;;;8.25;80.18;100985.47;2035819;29;20304;-74
2022/11/15 01:35:40;;;;;;;41.20;14.90;;;;;;;8.18;80.39;100995.59;2041188;29;20675;-74
2022/11/15 01:37:00;;;;;;;41.90;14.65;;;;;;;8.05;80.49;100989.56;2040970;29;20306;-73
2022/11/15 01:38:23;;;;;;;40.70;14.70;;;;;;;8.02;80.71;100992.72;2041204;29;20302;-73
2022/11/15 01:39:50;;;;;;;38.53;15.45;;;;;;;8.05;80.75;100989.56;2037466;29;20645;-73
2022/11/15 01:41:33;;;;;;;39.95;14.90;;;;;;;8.08;81.27;100983.69;2025692;29;20376;-74
2022/11/15 01:42:57;;;;;;;41.65;15.57;;;;;;;8.11;80.95;100988.56;2033179;29;20288;-73
2022/11/15 01:44:51;;;;;;;37.95;15.18;;;;;;;8.18;81.25;100984.88;2025272;29;20312;-73
2022/11/15 01:46:23;;;;;;;38.88;14.98;;;;;;;8.19;80.98;100973.88;2033466;29;20284;-73
2022/11/15 01:47:48;;;;;;;37.50;13.80;;;;;;;8.18;81.14;100966.13;2033234;29;20296;-73
2022/11/15 01:49:14;;;;;;;41.58;15.82;;;;;;;8.16;80.92;100966.34;2036484;29;20724;-75
2022/11/15 01:50:37;;;;;;;41.10;15.65;;;;;;;8.17;81.57;100961.84;2033156;29;20300;-74
2022/11/15 01:52:05;;;;;;;44.58;14.90;;;;;;;8.17;81.16;100965.31;2027999;29;20295;-74
2022/11/15 01:53:32;;;;;;;41.28;15.55;;;;;;;8.18;81.09;100958.09;2031300;29;20292;-75
2022/11/15 01:55:10;;;;;;;42.85;15.32;;;;;;;8.17;80.95;100959.16;2028976;29;20292;-76
2022/11/15 01:56:42;;;;;;;45.55;15.55;;;;;;;8.15;81.08;100959.38;2033613;29;20296;-75
2022/11/15 01:58:05;;;;;;;39.03;13.43;;;;;;;8.16;81.20;100954.84;2033466;29;20284;-75
2022/11/15 01:59:26;;;;;;;36.67;13.52;;;;;;;8.16;80.87;100950.28;2032333;29;20303;-75
2022/11/15 02:00:50;;;;;;;41.83;14.77;;;;;;;8.16;81.10;100955.66;2032407;29;20288;-75
2022/11/15 02:02:11;;;;;;;39.13;14.75;;;;;;;8.16;81.22;100952.16;2032110;29;20304;-74
2022/11/15 02:03:41;;;;;;;41.92;14.48;;;;;;;8.12;81.28;100952.66;2034513;29;20299;-74
2022/11/15 02:05:02;;;;;;;42.83;15.07;;;;;;;8.10;81.31;100949.44;2034389;29;20319;-74
2022/11/15 02:06:23;;;;;;;48.83;15.77;;;;;;;8.11;81.35;100939.53;2032243;29;20044;-75
2022/11/15 02:07:44;;;;;;;42.60;13.93;;;;;;;8.12;81.44;100944.63;2034279;29;21384;-74
2022/11/15 02:09:05;;;;;;;43.70;15.25;;;;;;;8.15;81.56;100939.84;2034845;29;21019;-75
2022/11/15 02:10:26;;;;;;;43.58;13.65;;;;;;;8.16;81.51;100942.25;2029204;29;20729;-75
2022/11/15 02:11:51;;;;;;;41.28;14.40;;;;;;;8.12;81.70;100933.09;2038384;29;20291;-74
2022/11/15 02:13:14;;;;;;;39.33;14.70;;;;;;;8.06;81.87;100931.44;2033284;29;20294;-78
2022/11/15 02:14:36;;;;;;;43.90;14.93;;;;;;;8.05;81.67;100935.19;2033747;29;20310;-76
2022/11/15 02:16:24;;;;;;;39.70;14.80;;;;;;;8.00;81.82;100935.13;2043061;29;20275;-76
2022/11/15 02:17:55;;;;;;;45.13;14.48;;;;;;;7.99;81.76;100936.19;2034540;29;20291;-76
2022/11/15 02:19:35;;;;;;;40.72;14.27;;;;;;;7.97;81.76;100925.72;2041163;29;20288;-76
2022/11/15 02:21:36;;;;;;;40.53;14.35;;;;;;;7.96;82.22;100924.13;2039868;29;20756;-76
2022/11/15 02:23:20;;;;;;;42.08;14.00;;;;;;;7.97;82.39;100930.28;2033174;29;20315;-76
2022/11/15 02:25:24;;;;;;;45.58;13.52;;;;;;;7.97;82.41;100932.94;2036249;29;20292;-76
2022/11/15 02:26:59;;;;;;;34.90;12.63;;;;;;;7.99;82.34;100934.31;2043199;29;20298;-75
2022/11/15 02:28:48;;;;;;;43.10;14.13;;;;;;;8.01;82.29;100926.84;2042553;29;20295;-76
2022/11/15 02:30:28;;;;;;;42.87;13.70;;;;;;;8.04;82.25;100925.53;2042523;29;20764;-73
2022/11/15 02:31:53;;;;;;;;;;;;;;;8.01;82.17;100916.16;2042799;29;20299;-73
2022/11/15 02:33:17;;;;;;;38.33;13.55;;;;;;;7.97;82.56;100914.22;2042578;29;19926;-72
2022/11/15 02:34:57;;;;;;;38.15;13.75;;;;;;;7.96;82.64;100918.75;2042285;29;20299;-73
2022/11/15 02:36:27;;;;;;;36.25;13.00;;;;;;;7.97;82.28;100912.34;2041463;29;20675;-73
2022/11/15 02:37:57;;;;;;;42.55;14.15;;;;;;;7.97;82.23;100915.00;2037131;29;20291;-73
2022/11/15 02:39:36;;;;;;;44.00;13.80;;;;;;;7.98;82.78;100910.50;2042755;29;20288;-73
2022/11/15 02:41:02;;;;;;;41.88;14.02;;;;;;;7.99;82.52;100918.25;2042172;29;20044;-73
2022/11/15 02:44:24;;;;;;;39.83;13.07;;;;;;;8.01;82.73;100915.34;2041801;29;20671;-73
2022/11/15 02:45:53;;;;;;;40.97;13.73;;;;;;;8.03;83.09;100918.56;2041042;29;20283;-73
2022/11/15 02:47:17;;;;;;;41.28;13.40;;;;;;;8.06;82.55;100913.50;2038672;29;20890;-73
2022/11/15 02:48:41;;;;;;;36.30;13.82;;;;;;;8.06;82.39;100918.06;2032934;29;20079;-73
2022/11/15 02:50:10;;;;;;;37.38;13.25;;;;;;;8.08;82.46;100913.25;2022873;29;20300;-73
2022/11/15 02:51:32;;;;;;;38.30;13.52;;;;;;;8.12;82.88;100912.50;2031224;29;20296;-73
2022/11/15 02:52:55;;;;;;;46.60;14.63;;;;;;;8.16;83.01;100911.97;2028390;29;20032;-73
2022/11/15 02:54:22;;;;;;;42.17;15.02;;;;;;;8.15;82.13;100908.50;2041738;29;20287;-76
2022/11/15 02:55:46;;;;;;;40.50;13.93;;;;;;;8.16;82.57;100906.63;2041191;29;21020;-75
2022/11/15 02:57:18;;;;;;;42.22;14.27;;;;;;;8.16;82.18;100907.44;2041224;29;20326;-75
2022/11/15 02:58:59;;;;;;;48.33;14.13;;;;;;;8.18;82.46;100907.19;2042055;29;20344;-75
2022/11/15 03:00:20;;;;;;;44.05;15.13;;;;;;;8.19;82.48;100900.75;2042132;29;20295;-75
2022/11/15 03:02:10;;;;;;;40.53;14.75;;;;;;;8.20;82.86;100902.41;2039311;29;20039;-74
2022/11/15 03:04:09;;;;;;;39.72;13.77;;;;;;;8.25;82.41;100900.56;2042668;29;20640;-75
2022/11/15 03:05:49;;;;;;;37.92;14.63;;;;;;;8.23;82.40;100891.97;2042879;29;20538;-75
2022/11/15 03:07:18;;;;;;;35.53;13.07;;;;;;;8.19;82.06;100892.72;2042726;29;20291;-75
2022/11/15 03:09:03;;;;;;;41.28;13.38;;;;;;;8.19;82.64;100895.41;2041613;29;20307;-75
2022/11/15 03:10:59;;;;;;;43.95;14.10;;;;;;;8.18;82.15;100888.44;2042061;29;20756;-75
2022/11/15 03:12:59;;;;;;;39.17;13.75;;;;;;;8.17;82.22;100882.28;2033319;29;20292;-75
2022/11/15 03:14:25;;;;;;;;;;;;;;;8.19;82.53;100874.78;2043128;29;20291;-75
2022/11/15 03:15:58;;;;;;;46.53;14.80;;;;;;;8.21;82.25;100878.03;2042788;29;20363;-75
2022/11/15 03:17:30;;;;;;;45.53;13.98;;;;;;;8.24;82.45;100871.34;2041108;29;20295;-76
2022/11/15 03:19:04;;;;;;;40.63;14.80;;;;;;;8.27;82.86;100871.66;2041341;29;20756;-75
2022/11/15 03:20:30;;;;;;;44.08;15.65;;;;;;;8.26;82.73;100875.41;2041503;29;20298;-75
2022/11/15 03:21:55;;;;;;;43.72;15.70;;;;;;;8.24;82.26;100880.19;2041060;29;20299;-75
2022/11/15 03:23:17;;;;;;;46.88;15.00;;;;;;;8.25;82.06;100872.97;2037000;29;21028;-75
2022/11/15 03:24:39;;;;;;;45.47;15.07;;;;;;;8.29;82.50;100876.75;2030379;29;20672;-75
2022/11/15 03:26:03;;;;;;;42.70;15.40;;;;;;;8.30;82.70;100879.19;2038317;29;20287;-74
2022/11/15 03:27:27;;;;;;;49.30;15.02;;;;;;;8.33;82.45;100883.22;2032430;29;20304;-74
2022/11/15 03:29:01;;;;;;;47.92;14.52;;;;;;;8.34;82.59;100876.78;2039286;29;20365;-75
2022/11/15 03:30:24;;;;;;;41.58;14.95;;;;;;;8.36;82.41;100880.03;2040925;29;20303;-75
2022/11/15 03:31:51;;;;;;;41.85;13.70;;;;;;;8.38;82.52;100880.59;2041298;29;20294;-74
2022/11/15 03:33:14;;;;;;;47.63;14.70;;;;;;;8.41;82.46;100874.72;2040887;29;20295;-74
2022/11/15 03:34:58;;;;;;;46.03;13.50;;;;;;;8.43;82.64;100879.84;2028113;29;20300;-75
2022/11/15 03:36:25;;;;;;;39.67;14.13;;;;;;;8.43;81.96;100877.97;2041308;29;20286;-75
2022/11/15 03:37:54;;;;;;;46.38;15.82;;;;;;;8.38;81.60;100877.91;2041547;29;20291;-75
2022/11/15 03:39:15;;;;;;;41.53;14.70;;;;;;;8.36;82.00;100877.34;2041674;29;20299;-75
2022/11/15 03:40:57;;;;;;;;;;;;;;;8.33;82.14;100876.00;2043025;29;20294;-76
2022/11/15 03:42:44;;;;;;;38.67;13.02;;;;;;;8.35;81.64;100873.03;2034258;29;19922;-75
2022/11/15 03:44:21;;;;;;;44.97;15.13;;;;;;;8.33;81.77;100872.50;2041753;29;20287;-75
2022/11/15 03:45:49;;;;;;;43.47;14.75;;;;;;;8.29;81.70;100868.69;2041664;29;20299;-76
2022/11/15 03:47:17;;;;;;;46.08;14.45;;;;;;;8.28;81.85;100877.81;2032141;29;20299;-76
2022/11/15 03:48:43;;;;;;;41.72;13.90;;;;;;;8.26;81.67;100877.25;2034202;29;20295;-76
2022/11/15 03:50:14;;;;;;;42.60;14.68;;;;;;;8.23;82.27;100875.06;2040158;29;20291;-76
2022/11/15 03:51:40;;;;;;;49.55;14.45;;;;;;;8.23;81.88;100869.72;2042292;29;20288;-76
2022/11/15 03:53:02;;;;;;;43.58;14.40;;;;;;;8.20;82.40;100871.06;2042034;29;20283;-76
2022/11/15 03:54:22;;;;;;;41.45;14.40;;;;;;;8.22;81.80;100866.25;2042347;29;20287;-76
2022/11/15 03:55:43;;;;;;;40.58;13.98;;;;;;;8.23;82.19;100865.19;2041205;29;20276;-75
2022/11/15 03:57:06;;;;;;;37.83;13.35;;;;;;;8.27;82.36;100852.09;2040755;29;20787;-76
2022/11/15 03:58:27;;;;;;;39.20;13.82;;;;;;;8.33;82.34;100851.06;2041063;29;20291;-76
2022/11/15 03:59:51;;;;;;;36.35;13.82;;;;;;;8.27;81.91;100854.78;2041592;29;20295;-75
2022/11/15 04:01:12;;;;;;;39.70;13.15;;;;;;;8.20;82.21;100851.50;2040980;29;20306;-76
2022/11/15 04:02:38;;;;;;;39.53;13.82;;;;;;;8.19;82.10;100858.72;2040792;29;20854;-74
2022/11/15 04:04:00;;;;;;;40.78;14.48;;;;;;;8.17;82.05;100860.84;2041136;29;20280;-75
2022/11/15 04:05:24;;;;;;;38.47;13.38;;;;;;;8.15;82.09;100856.81;2041365;29;20295;-74
2022/11/15 04:06:47;;;;;;;42.47;14.93;;;;;;;8.15;82.05;100867.53;2032701;29;20299;-74
2022/11/15 04:08:08;;;;;;;42.38;13.77;;;;;;;8.14;82.03;100861.38;2038565;29;20291;-74
2022/11/15 04:09:30;;;;;;;44.63;14.18;;;;;;;8.17;82.46;100865.41;2041691;29;20296;-75
2022/11/15 04:10:51;;;;;;;42.50;13.40;;;;;;;8.09;82.17;100866.66;2041137;29;20291;-75
2022/11/15 04:12:13;;;;;;;35.88;13.18;;;;;;;8.06;82.48;100864.50;2041581;29;20283;-75
2022/11/15 04:13:36;;;;;;;47.75;15.45;;;;;;;8.09;82.53;100859.44;2042163;29;20284;-75
2022/11/15 04:15:10;;;;;;;35.25;12.23;;;;;;;8.17;82.30;100854.69;2042079;29;20283;-74
2022/11/15 04:16:32;;;;;;;37.72;12.98;;;;;;;8.23;82.69;100862.53;2042122;29;20321;-74
2022/11/15 04:17:55;;;;;;;38.42;13.38;;;;;;;8.29;82.70;100863.34;2042298;29;20301;-74
2022/11/15 04:24:16;;;;;;;33.70;12.05;;;;;;;8.17;81.51;100852.81;2035842;29;20044;-74
2022/11/15 04:25:40;;;;;;;31.27;12.25;;;;;;;8.20;82.06;100856.88;2041289;29;20055;-74
2022/11/15 04:27:00;;;;;;;37.53;11.63;;;;;;;8.23;82.03;100853.66;2041557;29;20351;-74
2022/11/15 04:28:24;;;;;;;36.00;13.23;;;;;;;8.25;82.25;100857.69;2041653;29;20294;-74
2022/11/15 04:29:45;;;;;;;39.42;13.00;;;;;;;8.31;81.97;100861.22;2041459;29;20317;-75
2022/11/15 04:31:08;;;;;;;36.83;12.27;;;;;;;8.30;82.26;100864.97;2036205;29;20291;-75
2022/11/15 04:32:32;;;;;;;38.20;12.70;;;;;;;8.24;81.82;100871.34;2039091;29;20712;-74
2022/11/15 04:33:57;;;;;;;35.17;13.15;;;;;;;8.16;81.58;100856.53;2041712;29;20652;-75
2022/11/15 04:35:18;;;;;;;42.25;14.05;;;;;;;8.17;81.98;100860.06;2042079;29;20295;-74
2022/11/15 04:38:22;;;;;;;40.05;12.68;;;;;;;8.15;82.05;100852.25;2040464;29;20295;-74
2022/11/15 04:39:47;;;;;;;37.97;12.98;;;;;;;8.19;81.70;100857.91;2040500;29;20048;-74
2022/11/15 04:41:08;;;;;;;36.50;12.60;;;;;;;8.19;82.20;100857.91;2032382;29;20284;-74
2022/11/15 04:42:36;;;;;;;38.45;12.68;;;;;;;8.12;81.67;100850.88;2037938;29;20617;-74
2022/11/15 04:44:02;;;;;;;39.00;13.50;;;;;;;8.11;82.04;100851.97;2040550;29;20307;-74
2022/11/15 04:45:23;;;;;;;36.17;12.30;;;;;;;8.14;82.00;100853.34;2040312;29;20621;-74
2022/11/15 04:46:43;;;;;;;40.30;12.95;;;;;;;8.18;82.26;100851.75;2040194;29;20303;-74
2022/11/15 04:48:09;;;;;;;35.65;13.52;;;;;;;8.13;81.76;100854.38;2040423;29;20718;-74
2022/11/15 04:49:31;;;;;;;39.50;13.10;;;;;;;8.16;81.93;100853.06;2040643;29;20807;-75
2022/11/15 04:50:53;;;;;;;34.70;11.80;;;;;;;8.18;82.13;100856.31;2028168;29;20300;-75
2022/11/15 04:52:18;;;;;;;37.38;13.18;;;;;;;8.10;82.05;100849.53;2038962;29;20295;-75
2022/11/15 04:53:40;;;;;;;40.15;11.65;;;;;;;8.07;81.92;100850.88;2041520;29;20609;-76
2022/11/15 04:55:06;;;;;;;36.55;13.10;;;;;;;8.06;82.32;100854.59;2041464;29;20292;-75
2022/11/15 04:56:29;;;;;;;34.13;12.43;;;;;;;8.07;82.03;100853.53;2041483;29;20307;-77
2022/11/15 04:57:58;;;;;;;36.03;12.32;;;;;;;8.09;82.54;100854.06;2041516;29;20303;-77
2022/11/15 04:59:24;;;;;;;30.92;11.75;;;;;;;8.12;82.49;100848.22;2041628;29;20292;-75
2022/11/15 05:00:45;;;;;;;37.70;12.32;;;;;;;8.02;82.18;100848.13;2041851;29;20291;-75
2022/11/15 05:02:05;;;;;;;36.22;12.32;;;;;;;7.99;82.14;100851.31;2040987;29;20307;-74
2022/11/15 05:05:08;;;;;;;37.55;11.38;;;;;;;8.01;82.49;100851.88;2041710;29;20298;-76
2022/11/15 05:06:32;;;;;;;34.35;12.60;;;;;;;8.00;82.25;100842.22;2041909;29;20480;-76
2022/11/15 05:07:52;;;;;;;34.38;11.35;;;;;;;7.97;82.10;100836.56;2041015;29;20287;-77
2022/11/15 05:09:17;;;;;;;33.85;11.85;;;;;;;8.00;82.12;100841.41;2039707;29;20299;-77
2022/11/15 05:10:38;;;;;;;36.80;11.60;;;;;;;8.05;82.42;100836.09;2040306;29;20700;-76
2022/11/15 05:12:02;;;;;;;36.83;12.40;;;;;;;8.07;82.56;100840.16;2040739;29;20294;-76
2022/11/15 05:13:24;;;;;;;27.92;10.25;;;;;;;8.11;82.63;100843.94;2040035;29;20291;-75
2022/11/15 05:14:52;;;;;;;32.00;11.48;;;;;;;8.11;82.31;100840.44;2040318;29;20287;-75
2022/11/15 05:16:15;;;;;;;32.70;11.23;;;;;;;8.12;82.48;100839.38;2032384;29;20676;-78
2022/11/15 05:17:36;;;;;;;31.52;11.23;;;;;;;8.11;82.39;100841.25;2037415;29;20294;-75
2022/11/15 05:18:56;;;;;;;35.13;12.45;;;;;;;8.09;82.05;100843.38;2040135;29;20291;-76
2022/11/15 05:20:17;;;;;;;31.73;11.40;;;;;;;8.09;82.12;100842.56;2041036;29;20300;-75
2022/11/15 05:21:38;;;;;;;29.50;11.30;;;;;;;8.07;82.31;100839.31;2041130;29;20306;-74
2022/11/15 05:23:01;;;;;;;35.47;11.65;;;;;;;8.04;81.94;100840.66;2035931;29;20291;-75
2022/11/15 05:24:27;;;;;;;30.13;11.20;;;;;;;8.06;82.40;100838.50;2039898;29;20326;-74
2022/11/15 05:25:48;;;;;;;34.13;11.30;;;;;;;8.09;82.46;100847.91;2040374;29;20307;-76
2022/11/15 05:27:12;;;;;;;29.38;10.77;;;;;;;8.14;82.45;100842.63;2040078;29;20732;-73
2022/11/15 05:28:36;;;;;;;28.90;11.18;;;;;;;8.16;82.64;100843.16;2039980;29;20409;-73
2022/11/15 05:30:00;;;;;;;27.83;10.80;;;;;;;8.13;81.88;100839.13;2039967;29;20634;-72
2022/11/15 05:31:24;;;;;;;33.05;12.60;;;;;;;8.09;82.23;100839.88;2040021;29;20298;-73
2022/11/15 05:32:47;;;;;;;37.83;12.38;;;;;;;8.11;82.15;100835.91;2039379;29;20302;-73
2022/11/15 05:34:11;;;;;;;35.83;12.00;;;;;;;8.18;81.89;100841.03;2030665;29;20311;-73
2022/11/15 05:35:48;;;;;;;26.50;11.00;;;;;;;8.20;81.88;100844.28;2031293;29;20295;-73
2022/11/15 05:37:09;;;;;;;32.47;11.43;;;;;;;8.19;81.58;100831.94;2037843;29;20302;-73
2022/11/15 05:38:35;;;;;;;31.33;11.23;;;;;;;8.19;81.83;100831.13;2033633;29;20295;-74
2022/11/15 05:40:04;;;;;;;31.17;11.52;;;;;;;8.13;81.65;100841.81;2019485;29;20798;-75
2022/11/15 05:41:32;;;;;;;33.22;11.77;;;;;;;8.12;81.71;100834.81;2030650;29;20308;-73
2022/11/15 05:42:53;;;;;;;34.65;12.20;;;;;;;8.14;81.89;100834.59;2030603;29;20284;-75
2022/11/15 05:44:19;;;;;;;35.72;12.40;;;;;;;8.11;81.61;100835.91;2034311;29;20854;-74
2022/11/15 05:45:46;;;;;;;36.10;11.90;;;;;;;8.07;81.65;100833.97;2026904;29;20284;-73
2022/11/15 05:47:10;;;;;;;35.53;12.23;;;;;;;8.04;81.66;100835.31;2035266;29;20367;-73
2022/11/15 05:48:37;;;;;;;34.38;11.18;;;;;;;8.03;81.81;100839.03;2032808;29;20292;-73
2022/11/15 05:49:58;;;;;;;35.85;11.90;;;;;;;8.03;81.90;100841.69;2035423;29;20291;-74
2022/11/15 05:51:23;;;;;;;34.50;12.90;;;;;;;8.06;81.92;100843.06;2035459;29;20295;-74
2022/11/15 05:52:45;;;;;;;38.03;12.30;;;;;;;8.07;81.74;100842.84;2030660;29;20653;-73
2022/11/15 05:54:08;;;;;;;34.42;12.70;;;;;;;8.07;81.92;100845.50;2034935;29;20287;-73
2022/11/15 05:55:32;;;;;;;31.42;11.45;;;;;;;8.02;81.94;100848.13;2035347;29;20291;-77
2022/11/15 05:56:57;;;;;;;35.70;11.25;;;;;;;8.03;82.19;100844.38;2037113;29;20713;-79
2022/11/15 05:58:19;;;;;;;31.10;10.65;;;;;;;8.00;82.12;100849.44;2035367;29;20652;-82
2022/11/15 05:59:40;;;;;;;28.15;11.38;;;;;;;7.98;81.89;100856.94;2038163;29;20660;-83
2022/11/15 06:01:03;;;;;;;33.70;11.30;;;;;;;7.97;82.44;100845.41;2032399;29;20294;-73
2022/11/15 06:02:32;;;;;;;30.65;11.30;;;;;;;7.98;81.96;100841.69;2032586;29;20284;-73
2022/11/15 06:03:55;;;;;;;35.20;12.02;;;;;;;7.98;81.88;100840.88;2032096;29;20315;-74
2022/11/15 06:05:19;;;;;;;33.28;11.23;;;;;;;8.00;82.43;100839.53;2032890;29;20296;-72
2022/11/15 06:06:42;;;;;;;29.30;11.43;;;;;;;8.01;82.28;100835.81;2032876;29;20776;-72
2022/11/15 06:08:03;;;;;;;34.60;12.32;;;;;;;8.02;81.84;100841.97;2032365;29;20291;-72
2022/11/15 06:09:25;;;;;;;33.65;12.13;;;;;;;8.01;82.24;100841.16;2031691;29;20295;-73
2022/11/15 06:10:45;;;;;;;35.63;11.48;;;;;;;8.01;81.91;100830.47;2039493;29;20283;-80
2022/11/15 06:12:09;;;;;;;33.47;11.35;;;;;;;8.03;82.27;100838.22;2039656;29;20287;-76
2022/11/15 06:13:36;;;;;;;30.90;10.98;;;;;;;8.02;82.33;100847.31;2040277;29;20306;-77
2022/11/15 06:15:00;;;;;;;31.88;11.18;;;;;;;7.98;81.77;100852.38;2039646;29;20667;-75
2022/11/15 06:16:26;;;;;;;27.65;10.50;;;;;;;7.99;82.08;100858.53;2037129;29;20296;-75
2022/11/15 06:17:47;;;;;;;31.13;10.93;;;;;;;7.92;81.98;100864.09;2034073;29;20303;-75
2022/11/15 06:19:08;;;;;;;32.15;10.82;;;;;;;7.95;81.84;100852.09;2039980;29;20295;-75
2022/11/15 06:20:30;;;;;;;31.38;10.48;;;;;;;7.98;81.69;100856.94;2033046;29;20280;-75
2022/11/15 06:21:51;;;;;;;32.10;11.55;;;;;;;7.99;81.93;100853.19;2033251;29;20315;-74
2022/11/15 06:23:13;;;;;;;30.08;10.48;;;;;;;8.01;81.99;100859.09;2035045;29;20970;-74
2022/11/15 06:24:33;;;;;;;30.67;10.57;;;;;;;8.04;81.93;100862.09;2040316;29;20790;-75
2022/11/15 06:25:57;;;;;;;32.28;12.23;;;;;;;8.06;82.15;100867.97;2041087;29;20306;-75
2022/11/15 06:27:24;;;;;;;35.17;11.93;;;;;;;8.00;81.90;100863.63;2041053;29;20319;-75
2022/11/15 06:28:46;;;;;;;34.63;12.45;;;;;;;7.95;81.55;100863.59;2040102;29;20310;-75
2022/11/15 06:30:10;;;;;;;36.30;10.93;;;;;;;7.93;81.99;100857.69;2040090;29;20748;-75
2022/11/15 06:31:30;;;;;;;31.63;10.88;;;;;;;7.83;81.65;100865.63;2040178;29;20299;-75
2022/11/15 06:32:51;;;;;;;41.95;11.07;;;;;;;7.76;82.13;100859.66;2040246;29;20287;-74
2022/11/15 06:34:15;;;;;;;28.83;11.27;;;;;;;7.77;81.99;100858.59;2040035;29;20295;-75
2022/11/15 06:35:36;;;;;;;36.45;11.25;;;;;;;7.78;82.37;100855.66;2039292;29;20762;-75
2022/11/15 06:37:02;;;;;;;30.63;11.30;;;;;;;7.79;82.33;100859.97;2034865;29;20353;-75
2022/11/15 06:38:23;;;;;;;36.78;12.15;;;;;;;7.78;82.32;100860.19;2036127;29;20302;-75
2022/11/15 06:39:45;;;;;;;32.25;10.63;;;;;;;7.79;82.28;100861.84;2032698;29;20781;-75
2022/11/15 06:41:08;;;;;;;31.52;11.55;;;;;;;7.81;82.61;100863.19;2036293;29;20322;-75
2022/11/15 06:42:31;;;;;;;30.23;10.70;;;;;;;7.84;82.61;100867.22;2038969;29;20791;-75
2022/11/15 06:43:55;;;;;;;34.90;11.52;;;;;;;7.85;82.28;100863.50;2039814;29;20315;-75